createdAt,value
2022-08-03T00:01:56.301Z,97709.25
2022-08-03T00:04:34.129Z,97722.16
2022-08-03T00:07:02.676Z,97748.94
2022-08-03T00:09:35.574Z,97745.63
2022-08-03T00:12:04.239Z,97744.56
2022-08-03T00:14:33.979Z,97737.66
2022-08-03T00:17:02.322Z,97705.22
2022-08-03T00:19:30.610Z,97744.03
2022-08-03T00:21:58.757Z,97742.75
2022-08-03T00:24:27.004Z,97709.66
2022-08-03T00:26:55.337Z,97746.28
2022-08-03T00:29:23.498Z,97749.34
2022-08-03T00:32:00.176Z,97753.31
2022-08-03T00:34:35.244Z,97752.66
2022-08-03T00:37:17.453Z,97737.50
2022-08-03T00:39:47.423Z,97725.88
2022-08-03T00:42:16.106Z,97744.41
2022-08-03T00:44:45.710Z,97741.28
2022-08-03T00:47:15.325Z,97743.31
2022-08-03T00:49:44.216Z,97710.03
2022-08-03T00:52:14.997Z,97767.34
2022-08-03T00:54:43.373Z,97757.78
2022-08-03T00:57:11.699Z,97750.16
2022-08-03T00:59:40.394Z,97746.75
2022-08-03T01:02:08.586Z,97749.72
2022-08-03T01:04:38.335Z,97753.88
2022-08-03T01:07:14.402Z,97629.69
2022-08-03T01:09:49.163Z,97718.56
2022-08-03T01:12:23.826Z,97752.16
2022-08-03T01:14:57.929Z,97762.16
2022-08-03T01:17:33.208Z,97756.44
2022-08-03T01:20:08.218Z,97753.66
2022-08-03T01:23:19.597Z,97744.09
2022-08-03T01:26:04.858Z,97741.66
2022-08-03T01:28:52.460Z,97754.88
2022-08-03T01:31:25.697Z,97750.22
2022-08-03T01:34:00.446Z,97753.63
2022-08-03T01:36:33.802Z,97754.69
2022-08-03T01:39:03.891Z,97716.53
2022-08-03T01:41:34.882Z,97697.44
2022-08-03T01:44:27.436Z,97748.69
2022-08-03T01:46:56.703Z,97750.38
2022-08-03T01:49:26.934Z,97722.63
2022-08-03T01:52:04.264Z,97679.66
2022-08-03T01:54:36.378Z,97735.66
2022-08-03T01:57:06.139Z,97746.28
2022-08-03T01:59:37.619Z,97755.00
2022-08-03T02:02:32.253Z,97734.91
2022-08-03T02:04:58.952Z,97734.69
2022-08-03T02:07:30.355Z,97740.56
2022-08-03T02:10:01.451Z,97734.19
2022-08-03T02:12:31.310Z,97731.94
2022-08-03T02:15:01.842Z,97725.97
2022-08-03T02:17:39.916Z,97737.72
2022-08-03T02:20:12.347Z,97729.94
2022-08-03T02:22:42.282Z,97706.31
2022-08-03T02:25:11.913Z,97719.91
2022-08-03T02:27:43.756Z,97658.78
2022-08-03T02:30:14.863Z,97727.09
2022-08-03T02:32:53.010Z,97729.59
2022-08-03T02:35:24.204Z,97735.53
2022-08-03T02:37:57.322Z,97729.38
2022-08-03T02:40:28.090Z,97728.06
2022-08-03T02:43:00.264Z,97731.66
2022-08-03T02:45:30.426Z,97730.63
2022-08-03T02:48:04.443Z,97713.44
2022-08-03T02:50:35.332Z,97718.78
2022-08-03T02:53:04.773Z,97732.56
2022-08-03T02:55:36.042Z,97729.22
2022-08-03T02:58:14.585Z,97727.78
2022-08-03T03:00:45.404Z,97727.13
2022-08-03T03:03:16.184Z,97729.31
2022-08-03T03:05:52.635Z,97722.06
2022-08-03T03:08:28.488Z,97739.72
2022-08-03T03:10:58.579Z,97734.78
2022-08-03T03:13:28.297Z,97731.28
2022-08-03T03:16:01.059Z,97733.56
2022-08-03T03:18:33.090Z,97733.38
2022-08-03T03:21:03.020Z,97705.47
2022-08-03T03:23:34.119Z,97676.09
2022-08-03T03:26:03.103Z,97738.00
2022-08-03T03:28:32.386Z,97729.28
2022-08-03T03:31:00.576Z,97729.84
2022-08-03T03:33:28.792Z,97730.81
2022-08-03T03:35:58.977Z,97728.63
2022-08-03T03:38:27.302Z,97733.75
2022-08-03T03:40:55.978Z,97738.00
2022-08-03T03:43:24.810Z,97734.41
2022-08-03T03:45:54.189Z,97728.81
2022-08-03T03:48:22.449Z,97735.44
2022-08-03T03:50:51.130Z,97732.69
2022-08-03T03:53:20.766Z,97729.06
2022-08-03T03:55:59.141Z,97731.56
2022-08-03T03:58:31.680Z,97735.72
2022-08-03T04:00:59.724Z,97739.25
2022-08-03T04:03:27.829Z,97742.47
2022-08-03T04:06:13.379Z,97751.28
2022-08-03T04:09:15.048Z,97750.06
2022-08-03T04:11:44.898Z,97756.41
2022-08-03T04:14:14.641Z,97757.44
2022-08-03T04:16:44.162Z,97766.94
2022-08-03T04:19:13.296Z,97764.09
2022-08-03T04:21:42.784Z,97756.69
2022-08-03T04:24:13.199Z,97757.88
2022-08-03T04:26:42.336Z,97762.69
2022-08-03T04:29:12.022Z,97772.63
2022-08-03T04:31:41.174Z,97772.63
2022-08-03T04:34:09.306Z,97773.16
2022-08-03T04:36:41.311Z,97783.50
2022-08-03T04:39:12.111Z,97779.59
2022-08-03T04:42:06.731Z,97779.41
2022-08-03T04:44:30.746Z,97785.97
2022-08-03T04:46:59.398Z,97789.03
2022-08-03T04:49:27.893Z,97788.47
2022-08-03T04:51:56.036Z,97789.22
2022-08-03T04:54:27.224Z,97800.41
2022-08-03T04:56:56.710Z,97791.94
2022-08-03T04:59:24.690Z,97792.34
2022-08-03T05:01:52.939Z,97790.88
2022-08-03T05:04:21.114Z,97799.13
2022-08-03T05:06:55.023Z,97794.84
2022-08-03T05:09:49.886Z,97795.00
2022-08-03T05:12:13.791Z,97801.38
2022-08-03T05:14:43.251Z,97800.88
2022-08-03T05:17:11.188Z,97801.59
2022-08-03T05:19:39.532Z,97806.41
2022-08-03T05:22:07.464Z,97799.03
2022-08-03T05:24:35.455Z,97799.88
2022-08-03T05:27:03.728Z,97806.31
2022-08-03T05:29:33.096Z,97808.94
2022-08-03T05:32:16.617Z,97799.56
2022-08-03T05:34:45.030Z,97801.00
2022-08-03T05:37:13.419Z,97804.63
2022-08-03T05:39:41.585Z,97803.78
2022-08-03T05:42:10.847Z,97804.56
2022-08-03T05:44:40.453Z,97807.63
2022-08-03T05:47:09.755Z,97793.22
2022-08-03T05:49:38.076Z,97805.53
2022-08-03T05:52:13.796Z,97805.53
2022-08-03T05:54:56.988Z,97807.69
2022-08-03T05:57:26.536Z,97810.41
2022-08-03T05:59:58.310Z,97805.72
2022-08-03T06:02:27.394Z,97801.78
2022-08-03T06:04:55.679Z,97798.31
2022-08-03T06:07:24.092Z,97784.81
2022-08-03T06:10:35.941Z,97811.00
2022-08-03T06:12:41.549Z,97816.00
2022-08-03T06:15:11.981Z,97777.88
2022-08-03T06:17:50.427Z,97812.94
2022-08-03T06:20:20.102Z,97815.50
2022-08-03T06:22:50.774Z,97793.97
2022-08-03T06:25:21.413Z,97815.25
2022-08-03T06:27:49.694Z,97810.16
2022-08-03T06:30:21.451Z,97816.47
2022-08-03T06:32:52.029Z,97807.13
2022-08-03T06:35:21.411Z,97804.16
2022-08-03T06:37:51.097Z,97820.50
2022-08-03T06:40:28.980Z,97816.09
2022-08-03T06:42:57.276Z,97800.03
2022-08-03T06:45:32.084Z,97821.75
2022-08-03T06:48:05.001Z,97819.66
2022-08-03T06:50:33.681Z,97727.69
2022-08-03T06:53:02.292Z,97812.75
2022-08-03T06:55:30.606Z,97731.94
2022-08-03T06:58:00.078Z,97823.84
2022-08-03T07:00:33.197Z,97814.41
2022-08-03T07:03:01.491Z,97813.75
2022-08-03T07:05:30.740Z,97823.50
2022-08-03T07:07:59.433Z,97823.28
2022-08-03T07:10:27.853Z,97822.41
2022-08-03T07:12:56.971Z,97825.00
2022-08-03T07:15:38.419Z,97809.75
2022-08-03T07:18:15.070Z,97826.63
2022-08-03T07:20:43.551Z,97821.56
2022-08-03T07:23:18.916Z,97813.75
2022-08-03T07:25:47.831Z,97751.00
2022-08-03T07:28:16.007Z,97773.88
2022-08-03T07:30:44.299Z,97830.06
2022-08-03T07:33:14.190Z,97724.78
2022-08-03T07:35:42.440Z,97812.38
2022-08-03T07:38:10.682Z,97826.25
2022-08-03T07:40:44.411Z,97821.06
2022-08-03T07:43:14.350Z,97805.91
2022-08-03T07:45:42.708Z,97812.00
2022-08-03T07:48:12.540Z,97822.66
2022-08-03T07:50:42.597Z,97813.44
2022-08-03T07:53:10.823Z,97796.88
2022-08-03T07:55:39.509Z,97818.66
2022-08-03T07:58:12.369Z,97811.19
2022-08-03T08:00:41.164Z,97821.38
2022-08-03T08:03:10.248Z,97796.88
2022-08-03T08:05:38.888Z,97812.34
2022-08-03T08:08:08.566Z,97817.31
2022-08-03T08:10:37.409Z,97818.59
2022-08-03T08:13:05.748Z,97709.25
2022-08-03T08:15:34.337Z,97825.94
2022-08-03T08:18:02.896Z,97729.66
2022-08-03T08:20:36.542Z,97822.41
2022-08-03T08:23:24.229Z,97825.78
2022-08-03T08:25:58.100Z,97823.94
2022-08-03T08:28:30.250Z,97826.50
2022-08-03T08:31:01.888Z,97818.97
2022-08-03T08:33:48.075Z,97816.56
2022-08-03T08:36:18.454Z,97800.00
2022-08-03T08:38:48.509Z,97822.78
2022-08-03T08:41:17.191Z,97796.69
2022-08-03T08:43:45.540Z,97816.13
2022-08-03T08:46:22.837Z,97811.59
2022-08-03T08:48:54.058Z,97800.53
2022-08-03T08:51:23.496Z,97811.41
2022-08-03T08:54:14.196Z,97777.56
2022-08-03T08:56:42.689Z,97805.16
2022-08-03T08:59:11.311Z,97813.56
2022-08-03T09:01:39.574Z,97783.28
2022-08-03T09:04:09.592Z,97779.91
2022-08-03T09:06:37.966Z,97810.91
2022-08-03T09:09:09.314Z,97819.97
2022-08-03T09:12:20.073Z,97808.94
2022-08-03T09:15:07.353Z,97811.78
2022-08-03T09:17:42.186Z,97735.56
2022-08-03T09:20:11.257Z,97812.06
2022-08-03T09:22:53.968Z,97813.00
2022-08-03T09:25:29.121Z,97793.72
2022-08-03T09:28:06.615Z,97801.88
2022-08-03T09:30:35.641Z,97799.88
2022-08-03T09:33:05.463Z,97795.53
2022-08-03T09:38:26.549Z,97785.78
2022-08-03T09:40:59.456Z,97782.31
2022-08-03T09:43:30.353Z,97778.84
2022-08-03T09:46:04.722Z,97790.19
2022-08-03T09:48:35.158Z,97793.69
2022-08-03T09:51:13.517Z,97793.84
2022-08-03T09:53:58.731Z,97787.22
2022-08-03T09:56:42.745Z,97745.91
2022-08-03T09:59:13.651Z,97783.31
2022-08-03T10:01:42.997Z,97766.75
2022-08-03T10:04:17.315Z,97766.53
2022-08-03T10:06:46.617Z,97770.06
2022-08-03T10:09:17.288Z,97768.66
2022-08-03T10:11:47.103Z,97767.25
2022-08-03T10:14:20.079Z,97741.72
2022-08-03T10:16:49.785Z,97766.22
2022-08-03T10:19:19.538Z,97694.22
2022-08-03T10:21:52.332Z,97763.56
2022-08-03T10:24:27.013Z,97764.59
2022-08-03T10:27:02.690Z,97765.75
2022-08-03T10:29:38.349Z,97761.97
2022-08-03T10:32:15.873Z,97763.97
2022-08-03T10:34:46.584Z,97751.50
2022-08-03T10:37:17.443Z,97749.00
2022-08-03T10:39:54.522Z,97748.16
2022-08-03T10:42:26.443Z,97751.69
2022-08-03T10:45:06.009Z,97747.66
2022-08-03T10:47:35.714Z,97743.69
2022-08-03T10:50:05.583Z,97724.81
2022-08-03T10:52:36.048Z,97723.13
2022-08-03T10:55:51.373Z,97740.59
2022-08-03T10:58:57.851Z,97732.44
2022-08-03T11:01:58.781Z,97733.38
2022-08-03T11:04:30.178Z,97731.81
2022-08-03T11:07:21.650Z,97730.38
2022-08-03T11:09:51.750Z,97730.66
2022-08-03T11:12:30.437Z,97698.28
2022-08-03T11:15:02.247Z,97721.91
2022-08-03T11:17:33.319Z,97700.63
2022-08-03T11:20:01.872Z,97727.56
2022-08-03T11:22:51.060Z,97720.75
2022-08-03T11:25:54.205Z,97710.94
2022-08-03T11:28:27.690Z,97715.06
2022-08-03T11:30:56.446Z,97677.16
2022-08-03T11:33:33.029Z,97711.22
2022-08-03T11:36:02.620Z,97706.84
2022-08-03T11:38:30.916Z,97712.47
2022-08-03T11:40:59.223Z,97711.72
2022-08-03T11:43:46.573Z,97707.81
2022-08-03T11:46:28.631Z,97697.88
2022-08-03T11:49:09.770Z,97696.88
2022-08-03T11:51:40.442Z,97691.38
2022-08-03T11:54:09.462Z,97598.81
2022-08-03T11:56:48.484Z,97694.56
2022-08-03T11:59:21.780Z,97695.88
2022-08-03T12:01:50.896Z,97689.09
2022-08-03T12:04:20.551Z,97684.53
2022-08-03T12:07:01.732Z,97684.06
2022-08-03T12:09:30.108Z,97682.69
2022-08-03T12:12:00.663Z,97672.63
2022-08-03T12:14:49.684Z,97670.28
2022-08-03T12:17:19.402Z,97681.09
2022-08-03T12:19:49.527Z,97672.69
2022-08-03T12:22:18.096Z,97678.81
2022-08-03T12:24:47.606Z,97654.66
2022-08-03T12:27:26.272Z,97659.53
2022-08-03T12:29:58.686Z,97639.06
2022-08-03T12:32:27.787Z,97657.88
2022-08-03T12:35:01.532Z,97663.44
2022-08-03T12:37:31.075Z,97661.59
2022-08-03T12:40:10.113Z,97608.78
2022-08-03T12:42:41.105Z,97647.78
2022-08-03T12:45:26.421Z,97650.06
2022-08-03T12:47:56.322Z,97649.69
2022-08-03T12:50:33.131Z,97637.28
2022-08-03T12:53:01.911Z,97630.44
2022-08-03T12:55:40.138Z,97635.03
2022-08-03T12:58:36.805Z,97599.44
2022-08-03T13:01:09.538Z,97628.91
2022-08-03T13:03:43.217Z,97593.69
2022-08-03T13:06:17.744Z,97619.94
2022-08-03T13:08:48.374Z,97598.94
2022-08-03T13:11:55.948Z,97612.53
2022-08-03T13:14:13.620Z,97609.69
2022-08-03T13:16:48.080Z,97607.53
2022-08-03T13:19:16.484Z,97609.63
2022-08-03T13:21:53.477Z,97589.41
2022-08-03T13:24:31.978Z,97585.59
2022-08-03T13:27:00.447Z,97591.88
2022-08-03T13:29:28.772Z,97604.31
2022-08-03T13:31:57.099Z,97604.13
2022-08-03T13:34:25.309Z,97587.75
2022-08-03T13:37:10.523Z,97607.31
2022-08-03T13:39:57.828Z,97515.56
2022-08-03T13:42:29.642Z,97591.38
2022-08-03T13:44:57.988Z,97563.03
2022-08-03T13:47:26.547Z,97591.78
2022-08-03T13:50:01.048Z,97545.06
2022-08-03T13:52:36.712Z,97591.50
2022-08-03T13:55:07.115Z,97597.44
2022-08-03T13:58:02.669Z,97511.19
2022-08-03T14:00:29.006Z,97581.81
2022-08-03T14:03:05.053Z,97579.25
2022-08-03T14:05:35.861Z,97551.81
2022-08-03T14:08:06.929Z,97495.78
2022-08-03T14:10:36.722Z,97547.78
2022-08-03T14:13:05.589Z,97556.94
2022-08-03T14:15:38.306Z,97558.19
2022-08-03T14:18:15.415Z,97575.56
2022-08-03T14:20:48.603Z,97531.59
2022-08-03T14:23:20.472Z,97543.09
2022-08-03T14:25:52.441Z,97570.88
2022-08-03T14:28:23.807Z,97557.25
2022-08-03T14:30:52.481Z,97554.69
2022-08-03T14:33:21.132Z,97552.78
2022-08-03T14:35:49.948Z,97551.69
2022-08-03T14:38:20.343Z,97546.88
2022-08-03T14:40:48.395Z,97547.88
2022-08-03T14:43:18.151Z,97546.06
2022-08-03T14:45:46.520Z,97548.66
2022-08-03T14:50:30.827Z,97546.47
2022-08-03T14:51:03.243Z,97541.16
2022-08-03T14:53:32.932Z,97541.78
2022-08-03T14:56:01.935Z,97544.00
2022-08-03T14:58:32.452Z,97539.66
2022-08-03T15:01:00.668Z,97538.09
2022-08-03T15:03:28.860Z,97530.78
2022-08-03T15:05:58.039Z,97535.28
2022-08-03T15:08:27.610Z,97532.16
2022-08-03T15:10:57.822Z,97526.53
2022-08-03T15:13:27.122Z,97525.34
2022-08-03T15:15:55.460Z,97509.16
2022-08-03T15:18:24.235Z,97443.81
2022-08-03T15:20:52.567Z,97523.28
2022-08-03T15:23:20.731Z,97533.31
2022-08-03T15:26:28.726Z,97533.19
2022-08-03T15:28:39.037Z,97528.59
2022-08-03T15:31:07.737Z,97515.09
2022-08-03T15:33:35.672Z,97520.16
2022-08-03T15:36:03.985Z,97520.75
2022-08-03T15:38:32.035Z,97517.72
2022-08-03T15:40:59.953Z,97514.75
2022-08-03T15:43:27.941Z,97508.50
2022-08-03T15:46:27.670Z,97511.31
2022-08-03T15:48:46.958Z,97510.53
2022-08-03T15:51:15.244Z,97505.72
2022-08-03T15:53:43.290Z,97504.50
2022-08-03T15:56:15.486Z,97507.22
2022-08-03T15:59:10.875Z,97493.66
2022-08-03T16:01:35.997Z,97498.84
2022-08-03T16:04:04.466Z,97493.84
2022-08-03T16:06:35.947Z,97491.94
2022-08-03T16:09:22.950Z,97488.78
2022-08-03T16:11:55.753Z,97485.97
2022-08-03T16:14:32.601Z,97486.88
2022-08-03T16:17:07.451Z,97483.38
2022-08-03T16:19:35.510Z,97482.78
2022-08-03T16:22:03.865Z,97473.72
2022-08-03T16:24:32.164Z,97472.69
2022-08-03T16:27:00.693Z,97476.78
2022-08-03T16:29:28.876Z,97476.44
2022-08-03T16:31:56.958Z,97479.00
2022-08-03T16:34:26.358Z,97475.94
2022-08-03T16:36:54.815Z,97483.34
2022-08-03T16:39:22.820Z,97476.13
2022-08-03T16:41:53.622Z,97468.03
2022-08-03T16:44:29.690Z,97476.03
2022-08-03T16:46:57.732Z,97474.81
2022-08-03T16:49:53.638Z,97471.38
2022-08-03T16:52:16.825Z,97371.66
2022-08-03T16:54:53.136Z,97478.81
2022-08-03T16:57:58.967Z,97466.31
2022-08-03T17:00:33.903Z,97468.63
2022-08-03T17:03:03.931Z,97468.13
2022-08-03T17:05:47.107Z,97448.88
2022-08-03T17:08:16.399Z,97475.34
2022-08-03T17:10:54.762Z,97472.97
2022-08-03T17:13:38.728Z,97493.25
2022-08-03T17:16:09.559Z,97498.13
2022-08-03T17:18:42.198Z,97480.81
2022-08-03T17:21:18.838Z,97497.03
2022-08-03T17:23:58.610Z,97486.53
2022-08-03T17:26:30.337Z,97512.56
2022-08-03T17:29:12.881Z,97487.06
2022-08-03T17:31:49.031Z,97501.78
2022-08-03T17:34:18.885Z,97508.81
2022-08-03T17:37:05.442Z,97511.19
2022-08-03T17:42:29.128Z,97527.22
2022-08-03T17:44:58.562Z,97526.19
2022-08-03T17:47:41.835Z,97525.31
2022-08-03T17:50:23.959Z,97533.84
2022-08-03T17:53:00.835Z,97533.63
2022-08-03T17:55:56.724Z,97532.34
2022-08-03T17:58:21.329Z,97531.63
2022-08-03T18:03:59.395Z,97531.22
2022-08-03T18:06:31.839Z,97540.94
2022-08-03T18:09:05.370Z,97536.78
2022-08-03T18:11:54.885Z,97542.00
2022-08-03T18:14:32.621Z,97538.31
2022-08-03T18:17:02.731Z,97547.56
2022-08-03T18:20:01.749Z,97551.78
2022-08-03T18:22:21.174Z,97553.00
2022-08-03T18:24:55.954Z,97551.34
2022-08-03T18:27:24.471Z,97552.09
2022-08-03T18:30:13.644Z,97554.44
2022-08-03T18:32:43.377Z,97558.56
2022-08-03T18:35:53.811Z,97564.97
2022-08-03T18:38:18.977Z,97569.25
2022-08-03T18:40:49.042Z,97561.81
2022-08-03T18:43:18.885Z,97572.00
2022-08-03T18:48:47.043Z,97577.47
2022-08-03T18:51:28.808Z,97571.69
2022-08-03T18:54:10.313Z,97586.56
2022-08-03T18:57:01.069Z,97587.25
2022-08-03T18:59:32.563Z,97588.09
2022-08-03T19:02:09.144Z,97586.28
2022-08-03T19:04:47.403Z,97594.50
2022-08-03T19:07:22.207Z,97601.13
2022-08-03T19:09:55.967Z,97600.41
2022-08-03T19:12:37.376Z,97601.41
2022-08-03T19:15:12.890Z,97611.88
2022-08-03T19:17:42.586Z,97605.94
2022-08-03T19:20:21.201Z,97615.13
2022-08-03T19:22:52.510Z,97609.75
2022-08-03T19:25:20.629Z,97614.09
2022-08-03T19:28:06.048Z,97612.53
2022-08-03T19:30:40.333Z,97611.53
2022-08-03T19:33:09.675Z,97613.50
2022-08-03T19:35:51.411Z,97615.06
2022-08-03T19:38:28.359Z,97620.94
2022-08-03T19:41:00.075Z,97618.78
2022-08-03T19:43:53.765Z,97618.09
2022-08-03T19:46:30.201Z,97618.34
2022-08-03T19:49:01.674Z,97623.25
2022-08-03T19:52:00.654Z,97624.41
2022-08-03T19:54:25.534Z,97625.94
2022-08-03T19:56:59.654Z,97626.94
2022-08-03T19:59:36.801Z,97633.00
2022-08-03T20:02:17.435Z,97632.00
2022-08-03T20:04:54.815Z,97636.06
2022-08-03T20:07:26.265Z,97632.41
2022-08-03T20:09:56.707Z,97643.66
2022-08-03T20:12:26.636Z,97639.16
2022-08-03T20:14:58.938Z,97638.72
2022-08-03T20:17:54.484Z,97638.50
2022-08-03T20:20:19.849Z,97642.03
2022-08-03T20:22:53.131Z,97646.56
2022-08-03T20:25:38.904Z,97648.72
2022-08-03T20:28:13.988Z,97649.78
2022-08-03T20:30:47.267Z,97649.19
2022-08-03T20:33:18.779Z,97641.59
2022-08-03T20:35:49.138Z,97641.41
2022-08-03T20:38:18.419Z,97649.81
2022-08-03T20:40:46.788Z,97649.16
2022-08-03T20:43:14.845Z,97644.22
2022-08-03T20:45:59.233Z,97645.44
2022-08-03T20:48:33.594Z,97644.28
2022-08-03T20:51:01.611Z,97647.16
2022-08-03T20:53:59.494Z,97647.16
2022-08-03T20:56:18.476Z,97650.72
2022-08-03T20:58:50.627Z,97654.53
2022-08-03T21:01:27.722Z,97649.69
2022-08-03T21:04:04.621Z,97655.69
2022-08-03T21:06:37.797Z,97649.72
2022-08-03T21:09:06.961Z,97655.84
2022-08-03T21:11:41.753Z,97658.63
2022-08-03T21:13:00.460Z,97580.41
2022-08-03T21:13:04.191Z,97533.00
2022-08-03T21:14:13.131Z,97652.41
2022-08-03T21:16:44.864Z,97650.72
2022-08-03T21:19:13.017Z,97658.75
2022-08-03T21:21:41.069Z,97662.16
2022-08-03T21:24:12.553Z,97660.22
2022-08-03T21:26:41.012Z,97660.34
2022-08-03T21:29:08.988Z,97664.97
2022-08-03T21:31:40.573Z,97671.69
2022-08-03T21:34:10.109Z,97672.28
2022-08-03T21:36:38.639Z,97670.72
2022-08-03T21:39:08.456Z,97676.31
2022-08-03T21:41:36.910Z,97673.97
2022-08-03T21:44:05.786Z,97673.66
2022-08-03T21:46:35.872Z,97671.19
2022-08-03T21:49:52.042Z,97668.41
2022-08-03T21:51:55.383Z,97673.28
2022-08-03T21:54:25.702Z,97670.28
2022-08-03T21:56:56.062Z,97677.59
2022-08-03T21:59:24.440Z,97672.94
2022-08-03T22:01:55.503Z,97681.75
2022-08-03T22:04:53.354Z,97686.25
2022-08-03T22:07:16.260Z,97688.31
2022-08-03T22:09:51.045Z,97683.94
2022-08-03T22:12:23.717Z,97689.81
2022-08-03T22:15:01.355Z,97689.31
2022-08-03T22:17:55.463Z,97685.31
2022-08-03T22:20:19.455Z,97685.56
2022-08-03T22:22:55.413Z,97690.91
2022-08-03T22:25:28.932Z,97683.47
2022-08-03T22:27:58.589Z,97685.31
2022-08-03T22:30:26.528Z,97689.91
2022-08-03T22:32:56.370Z,97685.88
2022-08-03T22:35:25.437Z,97682.84
2022-08-03T22:37:55.532Z,97684.94
2022-08-03T22:40:23.595Z,97681.50
2022-08-03T22:42:53.160Z,97687.13
2022-08-03T22:45:45.103Z,97688.19
2022-08-03T22:48:09.627Z,97684.66
2022-08-03T22:50:38.446Z,97690.53
2022-08-03T22:53:07.963Z,97682.84
2022-08-03T22:55:35.952Z,97685.16
2022-08-03T22:58:03.872Z,97687.09
2022-08-03T23:00:31.890Z,97688.06
2022-08-03T23:03:01.587Z,97684.19
2022-08-03T23:06:00.236Z,97679.16
2022-08-03T23:08:21.848Z,97686.34
2022-08-03T23:10:51.372Z,97686.81
2022-08-03T23:13:20.084Z,97681.84
2022-08-03T23:15:51.999Z,97693.31
2022-08-03T23:18:22.248Z,97689.91
2022-08-03T23:20:52.859Z,97681.28
2022-08-03T23:23:22.238Z,97685.66
2022-08-03T23:25:51.934Z,97679.16
2022-08-03T23:28:20.414Z,97680.31
2022-08-03T23:30:50.295Z,97686.34
2022-08-03T23:33:19.145Z,97686.50
2022-08-03T23:36:28.571Z,97680.44
2022-08-03T23:38:49.902Z,97686.00
2022-08-03T23:41:18.681Z,97690.38
2022-08-03T23:43:51.723Z,97687.69
2022-08-03T23:46:22.629Z,97684.97
2022-08-03T23:48:51.050Z,97689.81
2022-08-03T23:51:22.311Z,97684.00
2022-08-03T23:54:00.037Z,97685.66
2022-08-03T23:56:35.558Z,97680.91
2022-08-03T23:59:08.402Z,97673.41
